createdAt,value
2024-01-30T00:02:37.904Z,98.08
2024-01-30T00:05:40.280Z,97.97
2024-01-30T00:08:43.046Z,96.83
2024-01-30T00:11:45.362Z,97.46
2024-01-30T00:14:50.118Z,97.35
2024-01-30T00:17:56.990Z,97.69
2024-01-30T00:21:01.187Z,97.21
2024-01-30T00:24:05.573Z,97.01
2024-01-30T00:27:07.896Z,96.81
2024-01-30T00:30:11.147Z,97.03
2024-01-30T00:33:13.579Z,97.65
2024-01-30T00:36:16.988Z,97.52
2024-01-30T00:39:20.834Z,98.46
2024-01-30T00:42:25.154Z,98.54
2024-01-30T00:45:29.748Z,97.98
2024-01-30T00:48:32.035Z,98.12
2024-01-30T00:51:34.456Z,98.26
2024-01-30T00:54:38.628Z,98.60
2024-01-30T00:57:42.856Z,98.62
2024-01-30T01:00:48.081Z,98.56
2024-01-30T01:03:50.681Z,98.47
2024-01-30T01:06:53.317Z,98.35
2024-01-30T01:09:55.688Z,98.73
2024-01-30T01:12:59.020Z,98.22
2024-01-30T01:16:01.423Z,98.47
2024-01-30T01:19:04.718Z,98.57
2024-01-30T01:22:07.216Z,98.32
2024-01-30T01:25:10.225Z,98.37
2024-01-30T01:28:12.716Z,98.62
2024-01-30T01:31:15.057Z,99.50
2024-01-30T01:34:18.205Z,99.99
2024-01-30T01:37:23.396Z,99.99
2024-01-30T01:40:26.289Z,99.99
2024-01-30T01:43:28.649Z,99.99
2024-01-30T01:46:35.327Z,99.99
2024-01-30T01:49:45.232Z,99.99
2024-01-30T01:52:51.875Z,99.99
2024-01-30T01:55:56.627Z,99.99
2024-01-30T01:59:03.993Z,99.99
2024-01-30T02:02:10.033Z,99.99
2024-01-30T02:05:12.511Z,99.99
2024-01-30T02:08:15.104Z,99.99
2024-01-30T02:11:17.997Z,99.99
2024-01-30T02:14:20.412Z,99.99
2024-01-30T02:17:24.344Z,99.99
2024-01-30T02:20:31.073Z,99.99
2024-01-30T02:23:35.531Z,99.99
2024-01-30T02:26:37.842Z,99.62
2024-01-30T02:29:41.124Z,99.99
2024-01-30T02:32:43.392Z,99.80
2024-01-30T02:35:45.846Z,98.97
2024-01-30T02:38:48.139Z,98.53
2024-01-30T02:41:50.384Z,98.85
2024-01-30T02:44:53.073Z,99.12
2024-01-30T02:47:55.386Z,99.15
2024-01-30T02:50:59.291Z,98.64
2024-01-30T02:54:01.555Z,98.51
2024-01-30T02:57:03.897Z,98.41
2024-01-30T03:00:07.621Z,98.97
2024-01-30T03:03:10.373Z,98.43
2024-01-30T03:06:12.731Z,98.29
2024-01-30T03:09:16.729Z,98.28
2024-01-30T03:12:19.165Z,97.67
2024-01-30T03:15:21.554Z,98.45
2024-01-30T03:18:24.786Z,97.71
2024-01-30T03:21:27.084Z,98.63
2024-01-30T03:24:29.369Z,99.99
2024-01-30T03:27:31.846Z,99.99
2024-01-30T03:30:35.677Z,98.85
2024-01-30T03:33:38.225Z,97.98
2024-01-30T03:36:41.276Z,98.08
2024-01-30T03:39:43.648Z,97.58
2024-01-30T03:42:46.630Z,98.71
2024-01-30T03:45:49.948Z,98.14
2024-01-30T03:48:52.294Z,97.98
2024-01-30T03:51:55.419Z,98.22
2024-01-30T03:54:57.727Z,98.03
2024-01-30T03:58:02.046Z,98.49
2024-01-30T04:01:05.074Z,98.81
2024-01-30T04:04:07.454Z,98.37
2024-01-30T04:07:09.837Z,99.12
2024-01-30T04:10:12.331Z,99.99
2024-01-30T04:13:15.453Z,99.99
2024-01-30T04:16:23.375Z,99.10
2024-01-30T04:19:26.498Z,98.98
2024-01-30T04:22:28.829Z,98.92
2024-01-30T04:25:31.138Z,98.74
2024-01-30T04:28:33.578Z,99.99
2024-01-30T04:31:37.892Z,99.39
2024-01-30T04:34:40.596Z,99.47
2024-01-30T04:37:43.029Z,99.26
2024-01-30T04:40:48.183Z,98.85
2024-01-30T04:43:50.417Z,98.68
2024-01-30T04:46:52.713Z,98.76
2024-01-30T04:49:55.765Z,98.93
2024-01-30T04:52:58.121Z,99.16
2024-01-30T04:56:00.640Z,99.43
2024-01-30T04:59:03.912Z,99.99
2024-01-30T05:02:06.491Z,99.99
2024-01-30T05:05:09.675Z,99.71
2024-01-30T05:08:12.050Z,99.77
2024-01-30T05:11:14.299Z,99.41
2024-01-30T05:14:17.588Z,99.63
2024-01-30T05:17:22.924Z,99.42
2024-01-30T05:20:25.328Z,99.00
2024-01-30T05:23:29.520Z,98.73
2024-01-30T05:26:34.606Z,98.42
2024-01-30T05:29:37.094Z,98.76
2024-01-30T05:32:39.573Z,98.90
2024-01-30T05:35:42.048Z,99.33
2024-01-30T05:38:44.839Z,98.62
2024-01-30T05:41:50.053Z,98.23
2024-01-30T05:44:53.552Z,98.48
2024-01-30T05:47:56.489Z,98.43
2024-01-30T05:51:01.673Z,98.20
2024-01-30T05:54:04.978Z,98.26
2024-01-30T05:57:08.161Z,98.13
2024-01-30T06:00:10.770Z,98.17
2024-01-30T06:03:13.114Z,98.17
2024-01-30T06:06:16.629Z,98.49
2024-01-30T06:09:18.929Z,99.32
2024-01-30T06:12:21.338Z,98.47
2024-01-30T06:15:23.612Z,97.65
2024-01-30T06:18:28.330Z,99.99
2024-01-30T06:21:33.977Z,99.99
2024-01-30T06:24:36.250Z,99.62
2024-01-30T06:27:38.568Z,99.99
2024-01-30T06:30:46.073Z,99.99
2024-01-30T06:33:49.762Z,99.99
2024-01-30T06:36:54.510Z,99.99
2024-01-30T06:40:01.629Z,99.99
2024-01-30T06:43:06.189Z,99.99
2024-01-30T06:46:09.206Z,99.99
2024-01-30T06:49:11.770Z,99.99
2024-01-30T06:52:15.603Z,99.99
2024-01-30T06:55:18.057Z,99.99
2024-01-30T06:58:20.562Z,99.99
2024-01-30T07:01:29.513Z,99.99
2024-01-30T07:04:35.356Z,99.99
2024-01-30T07:07:37.952Z,99.99
2024-01-30T07:10:40.958Z,99.99
2024-01-30T07:13:43.317Z,99.99
2024-01-30T07:16:45.568Z,99.99
2024-01-30T07:19:47.949Z,99.99
2024-01-30T07:22:51.444Z,99.99
2024-01-30T07:25:55.159Z,99.99
2024-01-30T07:28:58.540Z,99.99
2024-01-30T07:32:01.033Z,99.99
2024-01-30T07:35:08.300Z,99.99
2024-01-30T07:38:11.665Z,99.99
2024-01-30T07:41:14.067Z,99.99
2024-01-30T07:44:17.598Z,99.99
2024-01-30T07:47:19.966Z,99.99
2024-01-30T07:50:27.692Z,99.39
2024-01-30T07:53:30.514Z,98.89
2024-01-30T07:56:38.752Z,99.67
2024-01-30T07:59:45.031Z,99.45
2024-01-30T08:02:47.435Z,99.61
2024-01-30T08:05:49.750Z,98.61
2024-01-30T08:08:54.893Z,98.58
2024-01-30T08:11:57.882Z,98.47
2024-01-30T08:15:00.214Z,96.80
2024-01-30T08:18:05.779Z,95.68
2024-01-30T08:21:08.146Z,96.08
2024-01-30T08:24:13.905Z,96.40
2024-01-30T08:27:17.221Z,96.85
2024-01-30T08:30:20.626Z,96.40
2024-01-30T08:33:26.634Z,95.30
2024-01-30T08:36:29.105Z,94.18
2024-01-30T08:39:31.888Z,92.03
2024-01-30T08:42:34.494Z,90.30
2024-01-30T08:45:36.937Z,87.98
2024-01-30T08:48:39.340Z,86.60
2024-01-30T08:51:42.690Z,87.50
2024-01-30T08:54:44.990Z,86.92
2024-01-30T08:57:47.543Z,85.39
2024-01-30T09:00:49.972Z,85.30
2024-01-30T09:03:52.557Z,85.92
2024-01-30T09:06:55.022Z,86.18
2024-01-30T09:09:57.826Z,85.58
2024-01-30T09:13:00.199Z,87.56
2024-01-30T09:16:09.714Z,86.92
2024-01-30T09:19:12.144Z,87.57
2024-01-30T09:22:14.609Z,87.89
2024-01-30T09:25:22.894Z,84.72
2024-01-30T09:28:27.669Z,81.28
2024-01-30T09:31:35.977Z,78.69
2024-01-30T09:34:51.621Z,78.32
2024-01-30T09:38:03.912Z,80.61
2024-01-30T09:41:20.682Z,79.98
2024-01-30T09:44:25.651Z,78.99
2024-01-30T09:47:38.625Z,79.33
2024-01-30T09:50:47.953Z,82.64
2024-01-30T09:54:09.553Z,86.39
2024-01-30T09:57:23.552Z,86.49
2024-01-30T10:00:28.772Z,84.43
2024-01-30T10:03:37.901Z,81.76
2024-01-30T10:06:50.893Z,80.00
2024-01-30T10:09:55.245Z,83.00
2024-01-30T10:12:57.631Z,81.66
2024-01-30T10:16:00.564Z,78.25
2024-01-30T10:19:04.101Z,76.47
2024-01-30T10:22:06.879Z,72.59
2024-01-30T10:25:09.245Z,73.35
2024-01-30T10:28:17.954Z,69.57
2024-01-30T10:31:21.061Z,67.93
2024-01-30T10:34:24.510Z,70.13
2024-01-30T10:37:27.547Z,71.32
2024-01-30T10:40:32.604Z,70.86
2024-01-30T10:43:42.772Z,69.87
2024-01-30T10:46:55.938Z,70.60
2024-01-30T10:49:58.724Z,68.86
2024-01-30T10:53:02.893Z,67.55
2024-01-30T10:56:06.228Z,65.05
2024-01-30T10:59:11.973Z,67.76
2024-01-30T11:02:15.633Z,67.26
2024-01-30T11:05:28.711Z,65.31
2024-01-30T11:08:33.752Z,64.17
2024-01-30T11:12:13.525Z,63.08
2024-01-30T11:15:18.671Z,63.96
2024-01-30T11:18:26.871Z,63.43
2024-01-30T11:21:29.527Z,59.40
2024-01-30T11:24:31.984Z,56.99
2024-01-30T11:27:35.836Z,57.55
2024-01-30T11:30:38.146Z,53.92
2024-01-30T11:33:40.532Z,56.35
2024-01-30T11:36:44.547Z,54.15
2024-01-30T11:39:48.183Z,51.52
2024-01-30T11:42:50.919Z,50.93
2024-01-30T11:45:53.582Z,52.84
2024-01-30T11:48:56.271Z,50.78
2024-01-30T11:51:58.875Z,48.67
2024-01-30T11:55:06.540Z,52.81
2024-01-30T11:58:23.569Z,51.68
2024-01-30T12:01:26.395Z,51.77
2024-01-30T12:04:30.891Z,50.36
2024-01-30T12:07:36.418Z,48.44
2024-01-30T12:10:38.801Z,50.79
2024-01-30T12:13:42.838Z,52.19
2024-01-30T12:16:53.147Z,51.12
2024-01-30T12:20:08.116Z,52.05
2024-01-30T12:23:10.971Z,52.26
2024-01-30T12:26:14.658Z,50.30
2024-01-30T12:29:17.065Z,50.01
2024-01-30T12:32:19.388Z,48.76
2024-01-30T12:35:22.785Z,48.23
2024-01-30T12:38:26.011Z,48.50
2024-01-30T12:41:34.258Z,50.61
2024-01-30T12:44:36.537Z,50.65
2024-01-30T12:47:38.997Z,51.69
2024-01-30T12:50:41.310Z,49.94
2024-01-30T12:53:43.772Z,49.06
2024-01-30T12:56:46.060Z,49.18
2024-01-30T12:59:49.147Z,47.98
2024-01-30T13:02:52.554Z,49.30
2024-01-30T13:05:55.281Z,49.84
2024-01-30T13:08:57.637Z,50.83
2024-01-30T13:12:01.512Z,52.10
2024-01-30T13:15:06.139Z,51.74
2024-01-30T13:18:11.701Z,50.21
2024-01-30T13:21:14.012Z,49.64
2024-01-30T13:24:28.542Z,51.24
2024-01-30T13:27:30.857Z,51.51
2024-01-30T13:30:33.893Z,53.05
2024-01-30T13:33:36.219Z,54.17
2024-01-30T13:36:38.551Z,51.74
2024-01-30T13:39:40.807Z,51.54
2024-01-30T13:42:43.703Z,50.67
2024-01-30T13:45:50.459Z,51.24
2024-01-30T13:48:53.791Z,48.93
2024-01-30T13:51:58.058Z,49.15
2024-01-30T13:55:00.781Z,49.51
2024-01-30T13:58:03.344Z,51.11
2024-01-30T14:01:06.583Z,52.39
2024-01-30T14:04:12.017Z,53.07
2024-01-30T14:07:15.471Z,51.61
2024-01-30T14:10:17.971Z,52.81
2024-01-30T14:13:21.010Z,51.75
2024-01-30T14:16:23.317Z,54.72
2024-01-30T14:19:25.678Z,54.67
2024-01-30T14:22:28.105Z,55.86
2024-01-30T14:25:30.598Z,56.01
2024-01-30T14:28:33.050Z,54.24
2024-01-30T14:31:35.396Z,55.28
2024-01-30T14:34:38.512Z,54.98
2024-01-30T14:37:41.646Z,55.64
2024-01-30T14:40:43.998Z,58.32
2024-01-30T14:43:46.289Z,59.42
2024-01-30T14:46:48.648Z,60.18
2024-01-30T14:49:51.014Z,58.53
2024-01-30T14:52:53.274Z,58.33
2024-01-30T14:55:56.159Z,58.30
2024-01-30T14:58:59.603Z,59.49
2024-01-30T15:02:02.282Z,61.61
2024-01-30T15:05:05.586Z,62.80
2024-01-30T15:08:08.367Z,63.07
2024-01-30T15:11:11.109Z,63.66
2024-01-30T15:14:14.586Z,64.69
2024-01-30T15:17:20.193Z,64.99
2024-01-30T15:20:22.649Z,66.75
2024-01-30T15:23:25.283Z,68.09
2024-01-30T15:26:40.498Z,69.81
2024-01-30T15:29:43.281Z,72.26
2024-01-30T15:32:46.313Z,73.00
2024-01-30T15:35:48.579Z,74.33
2024-01-30T15:38:51.552Z,75.50
2024-01-30T15:41:54.884Z,76.23
2024-01-30T15:44:57.740Z,76.76
2024-01-30T15:48:00.413Z,77.47
2024-01-30T15:51:03.379Z,77.76
2024-01-30T15:54:06.920Z,78.34
2024-01-30T15:57:09.330Z,78.88
2024-01-30T16:00:13.875Z,79.00
2024-01-30T16:03:18.304Z,78.84
2024-01-30T16:06:21.578Z,79.25
2024-01-30T16:09:25.036Z,79.82
2024-01-30T16:12:28.315Z,81.19
2024-01-30T16:15:33.076Z,81.58
2024-01-30T16:18:35.582Z,81.70
2024-01-30T16:21:38.193Z,82.23
2024-01-30T16:24:41.541Z,83.24
2024-01-30T16:27:44.545Z,84.10
2024-01-30T16:30:47.455Z,84.56
2024-01-30T16:33:50.514Z,85.43
2024-01-30T16:36:53.533Z,84.87
2024-01-30T16:39:55.990Z,85.13
2024-01-30T16:42:58.325Z,86.02
2024-01-30T16:46:01.008Z,86.33
2024-01-30T16:49:13.393Z,86.93
2024-01-30T16:52:23.377Z,87.69
2024-01-30T16:55:27.850Z,87.30
2024-01-30T16:58:30.653Z,87.38
2024-01-30T17:01:33.161Z,88.27
2024-01-30T17:04:36.251Z,87.88
2024-01-30T17:07:39.452Z,88.37
2024-01-30T17:10:42.607Z,88.59
2024-01-30T17:13:44.864Z,88.19
2024-01-30T17:16:51.801Z,87.93
2024-01-30T17:19:59.201Z,87.98
2024-01-30T17:23:15.633Z,88.68
2024-01-30T17:26:25.708Z,89.07
2024-01-30T17:29:28.165Z,89.17
2024-01-30T17:32:30.988Z,90.64
2024-01-30T17:35:33.506Z,92.88
2024-01-30T17:38:36.010Z,93.74
2024-01-30T17:41:39.088Z,93.80
2024-01-30T17:44:44.732Z,93.82
2024-01-30T17:48:10.620Z,93.08
2024-01-30T17:51:15.569Z,93.04
2024-01-30T17:54:20.081Z,93.46
2024-01-30T17:57:24.713Z,92.63
2024-01-30T18:00:31.563Z,93.56
2024-01-30T18:03:34.906Z,93.63
2024-01-30T18:06:37.712Z,93.84
2024-01-30T18:09:53.695Z,93.17
2024-01-30T18:12:57.428Z,92.61
2024-01-30T18:15:59.933Z,92.34
2024-01-30T18:19:02.275Z,92.26
2024-01-30T18:22:05.622Z,92.68
2024-01-30T18:25:08.487Z,93.01
2024-01-30T18:28:10.796Z,93.16
2024-01-30T18:31:13.468Z,93.50
2024-01-30T18:34:28.027Z,93.21
2024-01-30T18:37:31.673Z,93.75
2024-01-30T18:40:34.859Z,93.68
2024-01-30T18:43:38.186Z,94.49
2024-01-30T18:46:42.344Z,95.35
2024-01-30T18:49:45.711Z,95.79
2024-01-30T18:52:48.074Z,95.30
2024-01-30T18:55:59.555Z,95.67
2024-01-30T18:59:03.324Z,95.50
2024-01-30T19:02:05.783Z,94.91
2024-01-30T19:05:08.339Z,95.84
2024-01-30T19:08:10.865Z,95.98
2024-01-30T19:11:20.776Z,96.22
2024-01-30T19:14:27.890Z,95.70
2024-01-30T19:17:31.779Z,95.48
2024-01-30T19:20:34.376Z,94.90
2024-01-30T19:23:37.493Z,94.00
2024-01-30T19:26:41.774Z,93.20
2024-01-30T19:29:45.782Z,92.87
2024-01-30T19:32:50.135Z,92.42
2024-01-30T19:36:02.025Z,91.71
2024-01-30T19:39:13.217Z,91.83
2024-01-30T19:42:15.455Z,91.87
2024-01-30T19:45:17.796Z,91.71
2024-01-30T19:48:26.974Z,91.75
2024-01-30T19:51:35.541Z,91.70
2024-01-30T19:54:40.043Z,91.56
2024-01-30T19:57:49.672Z,91.49
2024-01-30T20:00:52.114Z,91.57
2024-01-30T20:03:57.735Z,91.58
2024-01-30T20:07:00.263Z,91.43
2024-01-30T20:10:02.882Z,91.57
2024-01-30T20:13:06.850Z,91.13
2024-01-30T20:16:09.366Z,90.88
2024-01-30T20:19:12.754Z,90.87
2024-01-30T20:22:15.345Z,90.82
2024-01-30T20:25:19.607Z,90.68
2024-01-30T20:28:23.215Z,90.65
2024-01-30T20:31:33.280Z,90.35
2024-01-30T20:34:49.613Z,90.31
2024-01-30T20:38:05.064Z,90.52
2024-01-30T20:41:12.658Z,90.82
2024-01-30T20:44:21.005Z,90.75
2024-01-30T20:47:23.446Z,90.54
2024-01-30T20:50:30.924Z,90.16
2024-01-30T20:53:34.544Z,90.66
2024-01-30T20:56:36.797Z,91.01
2024-01-30T20:59:39.297Z,91.26
2024-01-30T21:02:42.972Z,91.43
2024-01-30T21:05:45.376Z,91.60
2024-01-30T21:08:48.164Z,91.92
2024-01-30T21:11:52.509Z,92.33
2024-01-30T21:14:54.798Z,92.84
2024-01-30T21:17:57.359Z,93.81
2024-01-30T21:20:59.825Z,94.44
2024-01-30T21:24:04.526Z,95.35
2024-01-30T21:27:06.951Z,95.59
2024-01-30T21:30:10.412Z,94.84
2024-01-30T21:33:16.667Z,94.71
2024-01-30T21:36:19.868Z,95.07
2024-01-30T21:39:23.517Z,94.66
2024-01-30T21:42:26.702Z,94.61
2024-01-30T21:45:35.612Z,94.35
2024-01-30T21:48:39.151Z,94.14
2024-01-30T21:51:49.965Z,94.08
2024-01-30T21:54:54.710Z,94.19
2024-01-30T21:57:57.736Z,94.21
2024-01-30T22:01:06.387Z,94.34
2024-01-30T22:04:08.952Z,95.61
2024-01-30T22:07:13.763Z,94.95
2024-01-30T22:10:17.284Z,94.40
2024-01-30T22:13:23.475Z,94.23
2024-01-30T22:16:28.236Z,94.13
2024-01-30T22:19:30.695Z,94.29
2024-01-30T22:22:39.654Z,94.50
2024-01-30T22:25:44.820Z,94.16
2024-01-30T22:28:48.063Z,93.88
2024-01-30T22:31:52.310Z,93.81
2024-01-30T22:34:56.097Z,93.81
2024-01-30T22:37:58.502Z,93.18
2024-01-30T22:41:00.759Z,92.96
2024-01-30T22:44:03.095Z,93.14
2024-01-30T22:47:05.996Z,93.09
2024-01-30T22:50:10.420Z,93.31
2024-01-30T22:53:17.545Z,93.57
2024-01-30T22:56:19.877Z,93.41
2024-01-30T22:59:22.181Z,93.52
2024-01-30T23:02:30.905Z,93.78
2024-01-30T23:05:34.488Z,93.89
2024-01-30T23:08:36.847Z,94.05
2024-01-30T23:11:43.535Z,94.46
2024-01-30T23:14:46.033Z,94.77
2024-01-30T23:17:48.636Z,94.73
2024-01-30T23:20:51.014Z,95.40
2024-01-30T23:23:53.266Z,95.74
2024-01-30T23:26:56.237Z,95.72
2024-01-30T23:29:59.015Z,96.50
2024-01-30T23:33:02.306Z,96.35
2024-01-30T23:36:04.860Z,96.70
2024-01-30T23:39:07.159Z,97.16
2024-01-30T23:42:10.878Z,97.64
2024-01-30T23:45:13.242Z,97.29
2024-01-30T23:48:15.786Z,96.87
2024-01-30T23:51:18.184Z,96.65
2024-01-30T23:54:20.468Z,96.37
2024-01-30T23:57:23.754Z,96.02
